Time;durP1;ratioP1;P1;durP2;ratioP2;P2;SDS_P1;SDS_P2;PMS_P1;PMS_P2;Temp;Humidity;BMP_temperature;BMP_pressure;BME280_temperature;BME280_humidity;BME280_pressure;Samples;Min_cycle;Max_cycle;Signal;HPM_P1;HPM_P2
2021/12/18 00:02:06;;;;;;;56.03;12.32;;;7.10;99.90;;;;;;5109320;28;20052;-85
2021/12/18 00:04:32;;;;;;;54.97;10.65;;;7.10;99.90;;;;;;5109572;28;20044;-84
2021/12/18 00:06:58;;;;;;;137.55;15.35;;;7.00;99.90;;;;;;5109129;28;20112;-83
2021/12/18 00:09:25;;;;;;;124.95;12.70;;;7.00;99.90;;;;;;5109717;28;20498;-84
2021/12/18 00:11:52;;;;;;;83.93;11.40;;;7.00;99.90;;;;;;5079362;28;20048;-84
2021/12/18 00:14:18;;;;;;;59.05;9.77;;;6.90;99.90;;;;;;5096471;28;20418;-85
2021/12/18 00:16:43;;;;;;;46.13;8.30;;;6.90;99.90;;;;;;5096499;28;20051;-84
2021/12/18 00:19:09;;;;;;;96.35;10.80;;;6.90;99.90;;;;;;5130050;27;20048;-83
2021/12/18 00:21:36;;;;;;;55.95;8.48;;;6.90;99.90;;;;;;5113270;28;20040;-85
2021/12/18 00:24:06;;;;;;;64.40;9.20;;;6.90;99.90;;;;;;5095503;28;20082;-85
2021/12/18 00:26:32;;;;;;;47.25;9.23;;;6.90;99.90;;;;;;5096458;28;20126;-85
2021/12/18 00:28:57;;;;;;;73.10;9.50;;;6.90;99.90;;;;;;5112390;28;20134;-85
2021/12/18 00:31:23;;;;;;;74.78;10.15;;;6.90;99.90;;;;;;5130193;27;20134;-85
2021/12/18 00:33:49;;;;;;;56.33;9.50;;;6.90;99.90;;;;;;5096001;28;20075;-83
2021/12/18 00:36:14;;;;;;;40.33;8.07;;;6.90;99.90;;;;;;5113071;28;20150;-84
2021/12/18 00:38:41;;;;;;;62.15;9.35;;;6.90;99.90;;;;;;5130306;27;20122;-85
2021/12/18 00:43:36;;;;;;;40.80;8.90;;;6.90;99.90;;;;;;5112678;28;20083;-85
2021/12/18 00:46:02;;;;;;;43.08;9.30;;;6.90;99.90;;;;;;5096026;28;20051;-84
2021/12/18 00:48:28;;;;;;;45.35;8.70;;;7.00;99.90;;;;;;5096078;28;20043;-83
2021/12/18 00:50:54;;;;;;;59.28;9.82;;;6.90;99.90;;;;;;5095634;28;20043;-84
2021/12/18 00:53:19;;;;;;;64.07;9.68;;;6.90;99.90;;;;;;5112668;28;20172;-84
2021/12/18 00:55:45;;;;;;;38.08;7.40;;;6.90;99.90;;;;;;5095965;28;20055;-83
2021/12/18 00:58:11;;;;;;;57.05;8.18;;;6.90;99.90;;;;;;5129620;27;20059;-84
2021/12/18 01:00:38;;;;;;;38.97;7.15;;;6.90;99.90;;;;;;5095811;28;20101;-84
2021/12/18 01:03:04;;;;;;;29.00;6.65;;;6.90;99.90;;;;;;5095295;28;20054;-84
2021/12/18 01:05:31;;;;;;;30.63;6.20;;;6.90;99.90;;;;;;5078878;28;20107;-85
2021/12/18 01:07:58;;;;;;;26.30;6.03;;;6.90;99.90;;;;;;5095163;28;20114;-83
2021/12/18 01:12:55;;;;;;;38.40;7.03;;;6.90;99.90;;;;;;5095649;28;20404;-84
2021/12/18 01:15:30;;;;;;;52.40;8.65;;;7.70;99.90;;;;;;5095886;28;20468;-84
2021/12/18 01:23:24;;;;;;;;;;;6.90;99.90;;;;;;5097960;28;20098;-84
2021/12/18 01:25:51;;;;;;;28.10;6.30;;;6.90;99.90;;;;;;5095298;28;19963;-84
2021/12/18 01:28:16;;;;;;;29.08;5.95;;;6.90;99.90;;;;;;5094833;28;20044;-85
2021/12/18 01:30:42;;;;;;;26.10;6.15;;;6.90;99.90;;;;;;5095158;28;20484;-84
2021/12/18 01:33:08;;;;;;;20.48;5.15;;;6.90;99.90;;;;;;5094635;28;20083;-85
2021/12/18 01:35:34;;;;;;;13.05;4.15;;;6.90;99.90;;;;;;5128596;27;20058;-84
2021/12/18 01:37:59;;;;;;;14.20;3.90;;;6.80;99.90;;;;;;5094389;28;20051;-85
2021/12/18 01:40:25;;;;;;;13.75;3.13;;;6.80;99.90;;;;;;5113053;28;20051;-84
2021/12/18 01:53:28;;;;;;;9.52;2.50;;;6.60;99.90;;;;;;5111665;28;20397;-85
2021/12/18 01:55:54;;;;;;;11.80;2.80;;;6.60;99.90;;;;;;5128336;27;20472;-84
2021/12/18 01:58:24;;;;;;;12.75;2.80;;;6.60;99.90;;;;;;5128296;27;20124;-84
2021/12/18 02:00:51;;;;;;;25.52;3.33;;;6.60;99.90;;;;;;5078070;28;20054;-84
2021/12/18 02:03:17;;;;;;;13.80;2.95;;;6.60;99.90;;;;;;5093871;28;20105;-85
2021/12/18 02:05:42;;;;;;;19.23;3.20;;;6.70;99.90;;;;;;5111235;28;20055;-85
2021/12/18 02:08:08;;;;;;;12.98;2.88;;;6.60;99.90;;;;;;5110956;28;20054;-84
2021/12/18 02:10:45;;;;;;;15.40;3.13;;;6.60;99.90;;;;;;5094319;28;20047;-84
2021/12/18 02:21:43;;;;;;;9.05;2.92;;;6.60;99.90;;;;;;5077671;28;20056;-84
2021/12/18 02:24:09;;;;;;;10.20;3.10;;;7.20;99.90;;;;;;5088275;28;20125;-84
2021/12/18 02:26:34;;;;;;;9.13;2.75;;;6.60;99.90;;;;;;5065466;28;20138;-84
2021/12/18 02:29:03;;;;;;;7.82;2.42;;;6.50;99.90;;;;;;5094168;28;20135;-84
2021/12/18 02:31:29;;;;;;;12.77;3.00;;;6.50;99.90;;;;;;5127873;27;20052;-84
2021/12/18 02:33:55;;;;;;;9.95;2.50;;;6.60;99.90;;;;;;5093471;28;20058;-84
2021/12/18 02:36:25;;;;;;;11.70;2.70;;;6.50;99.90;;;;;;5076729;28;20318;-84
2021/12/18 02:41:29;;;;;;;12.75;3.00;;;6.50;99.90;;;;;;5093593;28;20062;-84
2021/12/18 02:43:57;;;;;;;10.18;3.17;;;6.50;99.90;;;;;;5093704;28;20134;-85
2021/12/18 02:46:22;;;;;;;17.45;3.60;;;6.40;99.90;;;;;;5093695;28;20077;-85
2021/12/18 02:48:49;;;;;;;19.00;3.63;;;6.40;99.90;;;;;;5111819;28;20055;-85
2021/12/18 02:51:16;;;;;;;17.65;3.80;;;6.40;99.90;;;;;;5076444;28;20451;-84
2021/12/18 02:53:46;;;;;;;28.75;4.13;;;6.60;99.90;;;;;;5093873;28;20134;-85
2021/12/18 02:56:12;;;;;;;19.60;4.32;;;6.50;99.90;;;;;;5127450;27;20086;-85
2021/12/18 02:58:46;;;;;;;22.40;4.60;;;6.40;99.90;;;;;;5093349;28;20039;-85
2021/12/18 03:01:17;;;;;;;30.60;5.45;;;6.40;99.90;;;;;;5092809;28;20455;-85
2021/12/18 03:03:44;;;;;;;29.95;5.03;;;6.50;99.90;;;;;;5093307;28;20126;-85
2021/12/18 03:25:09;;;;;;;;;;;6.50;99.90;;;;;;5110141;28;20410;-85
2021/12/18 03:27:35;;;;;;;38.70;5.82;;;6.50;99.90;;;;;;5110160;28;20314;-85
2021/12/18 03:30:01;;;;;;;28.60;5.25;;;6.50;99.90;;;;;;5110084;28;20165;-84
2021/12/18 03:32:27;;;;;;;27.10;5.30;;;6.50;99.90;;;;;;5109654;28;20063;-83
2021/12/18 03:34:52;;;;;;;27.20;4.85;;;6.50;99.90;;;;;;5092548;28;20400;-84
2021/12/18 03:37:18;;;;;;;22.95;4.50;;;6.50;99.90;;;;;;5092497;28;20044;-83
2021/12/18 03:39:44;;;;;;;21.02;4.95;;;6.40;99.90;;;;;;5076252;28;20477;-85
2021/12/18 03:42:10;;;;;;;15.68;3.85;;;7.00;99.90;;;;;;5110609;28;20119;-85
2021/12/18 03:44:36;;;;;;;18.25;4.03;;;6.50;99.90;;;;;;5093177;28;20048;-86
2021/12/18 03:47:02;;;;;;;17.70;4.32;;;6.40;99.90;;;;;;5097300;28;20130;-84
2021/12/18 03:49:28;;;;;;;19.10;4.18;;;6.40;99.90;;;;;;5113716;28;20051;-85
2021/12/18 03:51:53;;;;;;;13.45;3.28;;;6.40;99.90;;;;;;5114966;28;20047;-85
2021/12/18 03:54:19;;;;;;;16.70;3.60;;;6.40;99.90;;;;;;5096294;28;20047;-85
2021/12/18 03:56:44;;;;;;;11.80;2.75;;;6.70;99.90;;;;;;5113972;28;20086;-85
2021/12/18 03:59:10;;;;;;;18.15;3.38;;;6.40;99.90;;;;;;5130902;27;20043;-85
2021/12/18 04:01:36;;;;;;;28.42;3.67;;;6.40;99.90;;;;;;5096478;28;20048;-85
2021/12/18 04:04:01;;;;;;;24.33;4.13;;;6.40;99.90;;;;;;5130567;27;20043;-85
2021/12/18 04:06:27;;;;;;;27.65;4.13;;;6.40;99.90;;;;;;5096140;28;20086;-85
2021/12/18 04:08:53;;;;;;;28.70;4.20;;;6.40;99.90;;;;;;5130733;27;20083;-85
2021/12/18 04:11:20;;;;;;;16.63;3.28;;;6.40;99.90;;;;;;5096243;28;20047;-85
2021/12/18 04:13:46;;;;;;;15.40;3.40;;;6.40;99.90;;;;;;5113400;28;20048;-85
2021/12/18 04:16:12;;;;;;;20.40;4.03;;;6.40;99.90;;;;;;5079811;28;20044;-85
2021/12/18 04:18:38;;;;;;;21.92;3.75;;;6.60;99.90;;;;;;5112927;28;20054;-84
2021/12/18 04:21:03;;;;;;;22.73;4.03;;;6.40;99.90;;;;;;5062773;28;20050;-85
2021/12/18 04:23:29;;;;;;;19.25;3.88;;;6.40;99.90;;;;;;5095424;28;20507;-85
2021/12/18 04:25:56;;;;;;;22.55;3.15;;;7.00;99.90;;;;;;5096351;28;20719;-85
2021/12/18 04:28:22;;;;;;;26.98;3.47;;;6.90;99.90;;;;;;5129852;27;20055;-84
2021/12/18 04:30:47;;;;;;;22.90;3.70;;;6.30;99.90;;;;;;5113209;28;20448;-85
2021/12/18 04:33:13;;;;;;;18.92;3.58;;;6.30;99.90;;;;;;5112872;28;20126;-85
2021/12/18 04:35:39;;;;;;;26.17;4.22;;;6.30;99.90;;;;;;5095811;28;20055;-85
2021/12/18 04:38:05;;;;;;;22.60;3.70;;;6.30;99.90;;;;;;5096099;28;20054;-84
2021/12/18 04:40:30;;;;;;;24.35;3.80;;;6.30;99.90;;;;;;5095700;28;20547;-85
2021/12/18 04:42:56;;;;;;;25.27;3.38;;;6.40;99.90;;;;;;5112662;28;20057;-84
2021/12/18 04:45:22;;;;;;;20.65;3.67;;;6.40;99.90;;;;;;5095721;28;20044;-84
2021/12/18 04:47:48;;;;;;;27.45;4.40;;;6.40;99.90;;;;;;5096385;28;20051;-84
2021/12/18 04:50:14;;;;;;;40.50;4.68;;;6.50;99.90;;;;;;5129880;27;20056;-84
2021/12/18 04:52:39;;;;;;;38.20;4.68;;;6.40;99.90;;;;;;5129254;27;20047;-85
2021/12/18 04:55:05;;;;;;;32.13;4.38;;;6.40;99.90;;;;;;5112582;28;20048;-85
2021/12/18 04:57:31;;;;;;;27.80;4.38;;;6.40;99.90;;;;;;5129003;27;20071;-85
2021/12/18 04:59:57;;;;;;;26.63;4.72;;;6.60;99.90;;;;;;5129727;27;20043;-85
2021/12/18 05:02:32;;;;;;;39.20;5.20;;;6.40;99.90;;;;;;5111842;28;20142;-85
2021/12/18 05:04:58;;;;;;;30.40;4.57;;;6.40;99.90;;;;;;5112436;28;20127;-85
2021/12/18 05:07:24;;;;;;;37.20;5.18;;;6.40;99.90;;;;;;5111747;28;20190;-86
2021/12/18 05:09:49;;;;;;;34.08;4.95;;;6.50;99.90;;;;;;5112289;28;20047;-85
2021/12/18 05:12:15;;;;;;;20.60;4.40;;;6.70;99.90;;;;;;5112376;28;20109;-85
2021/12/18 05:14:41;;;;;;;24.88;4.30;;;6.50;99.90;;;;;;5111453;28;20544;-85
2021/12/18 05:17:06;;;;;;;27.40;4.85;;;6.50;99.90;;;;;;5129418;27;20563;-85
2021/12/18 05:19:32;;;;;;;31.15;5.63;;;6.50;99.90;;;;;;5094918;28;20075;-85
2021/12/18 05:21:58;;;;;;;29.77;4.55;;;6.70;99.90;;;;;;5113410;28;20109;-85
2021/12/18 05:24:23;;;;;;;24.40;4.50;;;6.60;99.90;;;;;;5128608;27;20101;-85
2021/12/18 05:26:49;;;;;;;24.48;4.13;;;7.30;99.90;;;;;;5129399;27;20061;-85
2021/12/18 05:29:15;;;;;;;29.85;5.00;;;7.20;99.90;;;;;;5113171;28;20483;-85
2021/12/18 05:31:40;;;;;;;23.13;4.22;;;6.60;99.90;;;;;;5128624;27;20085;-85
2021/12/18 05:34:06;;;;;;;21.65;4.72;;;6.60;99.90;;;;;;5129130;27;20109;-85
2021/12/18 05:39:04;;;;;;;23.77;4.13;;;6.60;99.90;;;;;;5078836;28;20468;-85
2021/12/18 05:41:30;;;;;;;22.98;4.50;;;6.60;99.90;;;;;;5094584;28;20055;-85
2021/12/18 05:43:56;;;;;;;26.42;4.47;;;6.60;99.90;;;;;;5128607;27;20491;-83
2021/12/18 05:46:21;;;;;;;21.75;4.28;;;6.70;99.90;;;;;;5094967;28;20043;-88
2021/12/18 05:48:47;;;;;;;22.40;4.60;;;6.70;99.90;;;;;;5094204;28;20040;-88
2021/12/18 05:51:13;;;;;;;23.40;4.30;;;6.70;99.90;;;;;;5111512;28;20551;-87
2021/12/18 05:53:38;;;;;;;16.85;3.90;;;6.80;99.90;;;;;;5093939;28;20051;-87
2021/12/18 05:56:04;;;;;;;22.52;3.97;;;6.70;99.90;;;;;;5128716;27;20112;-87
2021/12/18 05:58:30;;;;;;;26.42;4.32;;;6.70;99.90;;;;;;5128261;27;20055;-87
2021/12/18 06:00:55;;;;;;;20.85;4.13;;;6.70;99.90;;;;;;5093843;28;20175;-87
2021/12/18 06:03:21;;;;;;;18.30;4.15;;;6.80;99.90;;;;;;5110005;28;20039;-87
2021/12/18 06:05:47;;;;;;;18.60;4.28;;;6.70;99.90;;;;;;5110642;28;20051;-86
2021/12/18 06:08:14;;;;;;;29.73;4.10;;;6.70;99.90;;;;;;5110050;28;20043;-86
2021/12/18 06:10:40;;;;;;;29.95;4.63;;;6.70;99.90;;;;;;5110656;28;20136;-86
2021/12/18 06:13:05;;;;;;;18.58;3.85;;;6.70;99.90;;;;;;5094135;28;20490;-84
2021/12/18 06:15:31;;;;;;;25.00;4.22;;;7.20;99.90;;;;;;5094041;28;20472;-84
2021/12/18 06:18:00;;;;;;;26.70;4.53;;;6.70;99.90;;;;;;5094234;28;20077;-84
2021/12/18 06:20:26;;;;;;;29.60;4.32;;;7.10;99.90;;;;;;5094139;28;20545;-84
2021/12/18 06:22:52;;;;;;;38.53;5.18;;;6.80;99.90;;;;;;5093014;28;20054;-83
2021/12/18 06:25:18;;;;;;;30.25;4.45;;;6.80;99.90;;;;;;5110994;28;20052;-84
2021/12/18 06:27:44;;;;;;;27.13;4.53;;;6.80;99.90;;;;;;5076630;28;20154;-84
2021/12/18 06:30:10;;;;;;;19.02;3.47;;;6.80;99.90;;;;;;5077004;28;20048;-84
2021/12/18 06:32:36;;;;;;;23.88;4.22;;;6.80;99.90;;;;;;5093426;28;20100;-84
2021/12/18 06:35:02;;;;;;;26.50;4.40;;;6.80;99.90;;;;;;5110610;28;20100;-84
2021/12/18 06:37:28;;;;;;;30.88;4.72;;;6.80;99.90;;;;;;5110699;28;20376;-83
2021/12/18 06:39:54;;;;;;;25.30;4.43;;;7.20;99.90;;;;;;5110207;28;20097;-84
2021/12/18 06:42:19;;;;;;;30.10;4.80;;;6.80;99.90;;;;;;5111676;28;20474;-85
2021/12/18 06:44:45;;;;;;;37.08;5.55;;;6.80;99.90;;;;;;5109961;28;20056;-84
2021/12/18 06:47:11;;;;;;;36.85;5.32;;;6.80;99.90;;;;;;5110329;28;20062;-84
2021/12/18 06:49:36;;;;;;;22.80;5.13;;;6.80;99.90;;;;;;5093217;28;20054;-83
2021/12/18 06:52:02;;;;;;;35.30;5.38;;;6.80;99.90;;;;;;5093533;28;20082;-84
2021/12/18 06:54:28;;;;;;;29.17;4.93;;;6.90;99.90;;;;;;5093528;28;20039;-84
2021/12/18 06:56:54;;;;;;;30.30;5.18;;;6.90;99.90;;;;;;5109697;28;20043;-84
2021/12/18 06:59:19;;;;;;;28.70;5.68;;;6.90;99.90;;;;;;5110279;28;20074;-84
2021/12/18 07:01:45;;;;;;;32.05;5.80;;;6.90;99.90;;;;;;5109832;28;20177;-84
2021/12/18 07:04:11;;;;;;;33.58;7.40;;;6.90;99.90;;;;;;5110111;28;20040;-84
2021/12/18 07:06:36;;;;;;;31.92;6.30;;;7.00;99.90;;;;;;5109746;28;20582;-83
2021/12/18 07:09:02;;;;;;;33.85;6.68;;;7.00;99.90;;;;;;5093539;28;20587;-83
2021/12/18 07:11:28;;;;;;;32.85;6.38;;;7.00;99.90;;;;;;5076708;28;20055;-84
2021/12/18 07:13:55;;;;;;;32.20;6.88;;;7.00;99.90;;;;;;5109878;28;20492;-84
2021/12/18 07:16:21;;;;;;;31.88;6.18;;;7.00;99.90;;;;;;5093481;28;20055;-84
2021/12/18 07:18:47;;;;;;;32.30;6.75;;;7.00;99.90;;;;;;5109509;28;20044;-84
2021/12/18 07:21:12;;;;;;;39.70;6.75;;;7.00;99.90;;;;;;5111160;28;20096;-84
2021/12/18 07:23:39;;;;;;;25.95;6.75;;;7.10;99.90;;;;;;5092108;28;20061;-84
2021/12/18 07:26:04;;;;;;;33.42;6.80;;;7.80;99.90;;;;;;5076576;28;20059;-83
2021/12/18 07:28:30;;;;;;;34.85;6.80;;;7.10;99.90;;;;;;5109852;28;20474;-84
2021/12/18 07:30:56;;;;;;;36.90;7.40;;;7.10;99.90;;;;;;5109596;28;20091;-83
2021/12/18 07:33:21;;;;;;;38.15;7.80;;;7.10;99.90;;;;;;5076136;28;20455;-84
2021/12/18 07:35:47;;;;;;;30.33;7.13;;;7.20;99.90;;;;;;5109643;28;20046;-84
2021/12/18 07:38:14;;;;;;;34.35;7.88;;;7.20;99.90;;;;;;5110055;28;20043;-83
2021/12/18 07:40:40;;;;;;;42.30;7.72;;;7.20;99.90;;;;;;5109650;28;20040;-83
2021/12/18 07:43:05;;;;;;;33.50;8.13;;;7.20;99.90;;;;;;5109751;28;20062;-84
2021/12/18 07:45:34;;;;;;;28.40;6.82;;;7.20;99.90;;;;;;5093083;28;20050;-84
2021/12/18 07:48:03;;;;;;;34.08;8.25;;;7.20;99.90;;;;;;5098880;28;20044;-84
2021/12/18 07:50:29;;;;;;;51.90;9.98;;;7.30;99.90;;;;;;5122286;28;20597;-84
2021/12/18 07:52:54;;;;;;;44.97;8.63;;;7.30;99.90;;;;;;5092535;28;20052;-85
2021/12/18 07:55:20;;;;;;;33.85;8.75;;;7.30;99.90;;;;;;5110005;28;20135;-85
2021/12/18 07:57:46;;;;;;;34.35;9.85;;;7.40;99.90;;;;;;5092239;28;20047;-82
2021/12/18 08:00:13;;;;;;;38.05;10.18;;;7.40;99.90;;;;;;5109640;28;20040;-82
2021/12/18 08:02:39;;;;;;;42.95;9.57;;;7.40;99.90;;;;;;5109350;28;20131;-83
2021/12/18 08:05:05;;;;;;;35.85;9.77;;;7.50;99.90;;;;;;5105873;28;20223;-83
2021/12/18 08:07:30;;;;;;;36.42;11.82;;;7.50;99.90;;;;;;5109097;28;20035;-82
2021/12/18 08:09:56;;;;;;;34.72;10.25;;;7.50;99.90;;;;;;5109348;28;20039;-82
2021/12/18 08:12:21;;;;;;;35.10;10.60;;;7.50;99.90;;;;;;5109360;28;20132;-83
2021/12/18 08:14:47;;;;;;;26.10;8.40;;;7.60;99.90;;;;;;5108742;28;20484;-82
2021/12/18 08:17:13;;;;;;;21.73;8.00;;;7.60;99.90;;;;;;5092485;28;20049;-82
2021/12/18 08:19:38;;;;;;;26.05;8.48;;;7.70;99.90;;;;;;5110037;28;20058;-85
2021/12/18 08:22:04;;;;;;;23.98;8.00;;;7.80;99.90;;;;;;5122556;28;20076;-84
2021/12/18 08:24:30;;;;;;;23.73;8.13;;;7.80;99.90;;;;;;5092236;28;20510;-83
2021/12/18 08:26:55;;;;;;;26.58;8.02;;;8.00;99.90;;;;;;5092353;28;20394;-84
2021/12/18 08:29:21;;;;;;;24.17;7.47;;;7.80;99.90;;;;;;5092826;28;20051;-84
2021/12/18 08:31:47;;;;;;;20.08;7.30;;;7.80;99.90;;;;;;5094930;28;20055;-84
2021/12/18 08:34:13;;;;;;;22.00;7.70;;;7.90;99.90;;;;;;5112892;28;20032;-84
2021/12/18 08:36:39;;;;;;;21.83;7.68;;;7.90;99.90;;;;;;5113304;28;20050;-84
2021/12/18 08:39:04;;;;;;;24.17;7.20;;;8.00;99.90;;;;;;5078900;28;20051;-84
2021/12/18 08:41:30;;;;;;;22.45;7.40;;;7.90;99.90;;;;;;5095653;28;20097;-84
2021/12/18 08:43:56;;;;;;;22.92;7.28;;;8.00;99.90;;;;;;5120424;27;20122;-85
2021/12/18 08:46:21;;;;;;;15.02;4.90;;;8.00;99.90;;;;;;5096105;28;20052;-84
2021/12/18 08:48:47;;;;;;;16.38;6.43;;;8.20;99.90;;;;;;5112694;28;20102;-84
2021/12/18 08:51:13;;;;;;;19.63;6.70;;;8.20;99.90;;;;;;5079002;28;20055;-84
2021/12/18 08:53:38;;;;;;;18.27;6.95;;;8.20;99.90;;;;;;5095404;28;20102;-84
2021/12/18 08:56:04;;;;;;;18.10;5.95;;;8.10;99.90;;;;;;5112164;28;20154;-84
2021/12/18 08:58:30;;;;;;;16.83;6.30;;;8.10;99.90;;;;;;5112679;28;20051;-84
2021/12/18 09:00:56;;;;;;;19.40;6.07;;;8.20;99.90;;;;;;5112876;28;20047;-85
2021/12/18 09:03:22;;;;;;;16.00;6.13;;;8.20;99.90;;;;;;5079406;28;20044;-85
2021/12/18 09:05:48;;;;;;;18.55;6.35;;;8.20;99.90;;;;;;5112582;28;20471;-82
2021/12/18 09:08:14;;;;;;;18.63;6.30;;;8.20;99.90;;;;;;5112308;28;20079;-84
2021/12/18 09:10:40;;;;;;;17.98;6.03;;;9.10;99.90;;;;;;5078799;28;20441;-83
2021/12/18 09:13:05;;;;;;;20.40;6.65;;;8.20;99.90;;;;;;5094899;28;20058;-85
2021/12/18 09:15:31;;;;;;;21.02;6.00;;;8.20;99.90;;;;;;5095343;28;20051;-84
2021/12/18 09:18:00;;;;;;;21.77;6.00;;;8.70;99.90;;;;;;5129314;27;20052;-83
2021/12/18 09:20:25;;;;;;;15.52;5.85;;;8.20;99.90;;;;;;5112263;28;20052;-82
2021/12/18 09:22:51;;;;;;;20.45;6.32;;;8.20;99.90;;;;;;5112411;28;20479;-80
2021/12/18 09:25:17;;;;;;;16.13;6.10;;;8.30;99.90;;;;;;5113032;28;20098;-83
2021/12/18 09:27:43;;;;;;;12.70;5.78;;;8.30;99.90;;;;;;5113341;28;20556;-83
2021/12/18 09:30:11;;;;;;;17.00;4.85;;;8.30;99.90;;;;;;5077667;28;20433;-82
2021/12/18 09:32:37;;;;;;;17.35;4.38;;;8.30;99.90;;;;;;5113019;28;20043;-83
2021/12/18 09:35:03;;;;;;;22.55;5.53;;;8.40;99.90;;;;;;5094076;28;20454;-82
2021/12/18 09:37:29;;;;;;;9.18;4.68;;;8.50;99.90;;;;;;5094670;28;20108;-81
2021/12/18 09:39:55;;;;;;;21.50;5.32;;;8.40;99.90;;;;;;5111222;28;20055;-81
2021/12/18 09:42:21;;;;;;;16.08;4.68;;;8.40;99.90;;;;;;5111389;28;20505;-81
2021/12/18 09:44:48;;;;;;;12.35;4.80;;;8.30;99.90;;;;;;5111304;28;20531;-85
2021/12/18 09:47:14;;;;;;;15.35;4.65;;;8.40;99.90;;;;;;5112760;28;20442;-86
2021/12/18 09:49:40;;;;;;;22.88;5.22;;;8.40;99.90;;;;;;5111855;28;20052;-86
2021/12/18 09:52:05;;;;;;;17.30;4.50;;;8.40;99.90;;;;;;5094090;28;20596;-85
2021/12/18 09:54:31;;;;;;;12.25;3.88;;;8.50;99.90;;;;;;5094562;28;20126;-84
2021/12/18 09:56:57;;;;;;;15.25;4.50;;;8.40;99.90;;;;;;5094072;28;20143;-84
2021/12/18 09:59:23;;;;;;;13.98;4.03;;;8.60;99.90;;;;;;5094371;28;20082;-87
2021/12/18 10:01:48;;;;;;;14.35;4.22;;;8.50;99.90;;;;;;5077627;28;20043;-93
2021/12/18 10:04:44;;;;;;;18.35;4.97;;;8.50;99.90;;;;;;5110363;28;20052;-84
2021/12/18 10:07:14;;;;;;;13.02;4.57;;;8.50;99.90;;;;;;5111955;27;20056;-82
2021/12/18 10:09:40;;;;;;;12.60;4.28;;;8.50;99.90;;;;;;5094658;28;20047;-86
2021/12/18 10:12:14;;;;;;;18.00;4.47;;;8.60;99.90;;;;;;5093644;28;20097;-92
2021/12/18 10:15:13;;;;;;;12.50;3.72;;;8.70;99.90;;;;;;5094111;28;20058;-84
2021/12/18 10:17:42;;;;;;;9.90;3.25;;;8.70;99.90;;;;;;5110298;28;20047;-82
2021/12/18 10:20:10;;;;;;;10.65;3.20;;;8.80;99.90;;;;;;5093563;28;20107;-82
2021/12/18 10:22:41;;;;;;;12.38;3.50;;;8.70;99.90;;;;;;5110515;28;20132;-80
2021/12/18 10:25:07;;;;;;;8.93;3.65;;;9.30;99.90;;;;;;5109852;28;20054;-86
2021/12/18 10:27:32;;;;;;;12.60;3.63;;;8.70;99.90;;;;;;5077008;28;20052;-83
2021/12/18 10:30:16;;;;;;;12.82;4.07;;;8.70;99.90;;;;;;5076763;28;20040;-88
2021/12/18 10:32:55;;;;;;;10.35;3.40;;;8.70;99.90;;;;;;5110646;28;20496;-85
2021/12/18 10:35:20;;;;;;;12.95;3.55;;;8.70;99.90;;;;;;5093506;28;20058;-87
2021/12/18 10:37:46;;;;;;;12.05;4.03;;;8.70;99.90;;;;;;5093436;28;20396;-82
2021/12/18 10:40:12;;;;;;;17.70;3.70;;;8.70;99.90;;;;;;5109667;28;20492;-85
2021/12/18 10:42:46;;;;;;;9.32;4.05;;;8.70;99.90;;;;;;5076529;28;20071;-83
2021/12/18 10:45:16;;;;;;;15.95;4.70;;;8.80;99.90;;;;;;5109560;28;20044;-85
2021/12/18 10:47:47;;;;;;;17.20;5.47;;;8.70;99.90;;;;;;5076349;28;20052;-84
2021/12/18 10:50:42;;;;;;;17.00;6.05;;;8.70;99.90;;;;;;5093545;28;20055;-83
2021/12/18 10:53:18;;;;;;;11.98;4.25;;;8.70;99.90;;;;;;5109578;28;20120;-82
2021/12/18 10:55:47;;;;;;;14.85;5.70;;;8.80;99.90;;;;;;5093280;28;20056;-82
2021/12/18 10:58:16;;;;;;;16.80;6.07;;;8.80;99.90;;;;;;5093097;28;20047;-82
2021/12/18 11:00:58;;;;;;;16.73;5.90;;;8.80;99.90;;;;;;5093267;28;20389;-83
2021/12/18 11:03:27;;;;;;;13.65;5.80;;;8.80;99.90;;;;;;5109632;28;20278;-81
2021/12/18 11:06:15;;;;;;;16.92;5.70;;;8.80;99.90;;;;;;5076545;28;20503;-82
2021/12/18 11:09:04;;;;;;;15.98;6.07;;;8.90;99.90;;;;;;5093197;28;20047;-82
2021/12/18 11:14:08;;;;;;;14.77;5.30;;;8.80;99.90;;;;;;5093760;28;20177;-83
2021/12/18 11:16:37;;;;;;;10.40;4.47;;;8.80;99.90;;;;;;5093755;28;20105;-82
2021/12/18 11:19:05;;;;;;;13.07;4.90;;;8.90;99.90;;;;;;5093449;28;20131;-82
2021/12/18 11:21:31;;;;;;;14.85;6.82;;;8.90;99.90;;;;;;5093821;28;20073;-83
2021/12/18 11:24:04;;;;;;;14.77;5.78;;;8.90;99.90;;;;;;5110344;28;20059;-84
2021/12/18 11:26:33;;;;;;;11.63;5.38;;;8.90;99.90;;;;;;5093560;28;20055;-84
2021/12/18 11:28:59;;;;;;;13.05;4.85;;;9.00;99.90;;;;;;5093593;28;20047;-84
2021/12/18 11:31:26;;;;;;;7.10;4.00;;;9.10;99.90;;;;;;5092949;28;20048;-84
2021/12/18 11:33:51;;;;;;;10.70;4.15;;;9.10;99.90;;;;;;5093393;28;20055;-83
2021/12/18 11:36:17;;;;;;;12.25;4.07;;;9.10;99.90;;;;;;5075477;28;20089;-84
2021/12/18 11:38:42;;;;;;;14.00;4.43;;;9.00;99.90;;;;;;5092940;28;20051;-83
2021/12/18 11:41:16;;;;;;;10.25;4.82;;;9.00;99.90;;;;;;5075888;28;20471;-83
2021/12/18 11:43:45;;;;;;;12.85;4.22;;;9.10;99.90;;;;;;5076707;28;20100;-83
2021/12/18 11:46:33;;;;;;;9.23;4.65;;;9.10;99.90;;;;;;5093167;28;20059;-82
2021/12/18 11:49:10;;;;;;;12.02;5.55;;;9.00;99.90;;;;;;5093150;28;20058;-82
2021/12/18 11:51:35;;;;;;;12.55;4.93;;;8.90;99.90;;;;;;5110189;28;20099;-82
2021/12/18 11:54:03;;;;;;;10.93;5.10;;;8.90;99.90;;;;;;5109991;28;20044;-82
2021/12/18 11:56:47;;;;;;;12.27;4.20;;;8.90;99.90;;;;;;5109593;28;20056;-83
2021/12/18 11:59:13;;;;;;;11.77;4.93;;;9.00;99.90;;;;;;5109694;28;20055;-84
2021/12/18 12:01:43;;;;;;;8.90;4.53;;;9.10;99.90;;;;;;5110103;28;20092;-81
2021/12/18 12:04:09;;;;;;;11.27;3.92;;;9.00;99.90;;;;;;5092988;28;20044;-82
2021/12/18 12:06:36;;;;;;;9.60;3.80;;;9.00;99.90;;;;;;5111095;28;20073;-82
2021/12/18 12:09:32;;;;;;;11.38;3.88;;;9.10;99.90;;;;;;5096664;28;20048;-83
2021/12/18 12:12:06;;;;;;;9.02;3.55;;;9.00;99.90;;;;;;5113889;28;20051;-82
2021/12/18 12:14:33;;;;;;;14.48;4.38;;;9.00;99.90;;;;;;5113361;28;20115;-82
2021/12/18 12:17:05;;;;;;;13.20;3.50;;;9.10;99.90;;;;;;5096555;28;20052;-82
2021/12/18 12:19:34;;;;;;;8.25;2.35;;;9.10;99.90;;;;;;5114387;28;20044;-84
2021/12/18 12:22:00;;;;;;;7.47;2.78;;;9.10;99.90;;;;;;5113652;28;20044;-82
2021/12/18 12:24:27;;;;;;;10.80;3.53;;;9.20;99.90;;;;;;5095740;28;20052;-82
2021/12/18 12:26:53;;;;;;;4.57;2.67;;;9.20;99.90;;;;;;5114842;28;20080;-82
2021/12/18 12:29:19;;;;;;;6.28;2.83;;;9.10;99.90;;;;;;5079676;28;20052;-83
2021/12/18 12:31:58;;;;;;;11.85;3.20;;;9.20;99.90;;;;;;5096756;28;20559;-83
2021/12/18 12:34:26;;;;;;;10.85;3.47;;;9.30;99.90;;;;;;5063302;28;20058;-84
2021/12/18 12:36:58;;;;;;;10.43;3.42;;;9.30;99.90;;;;;;5079825;28;20060;-84
2021/12/18 12:39:24;;;;;;;10.77;3.72;;;9.20;99.90;;;;;;5097009;28;20499;-84
2021/12/18 12:41:52;;;;;;;13.48;3.60;;;9.20;99.90;;;;;;5096638;28;20131;-83
2021/12/18 12:44:26;;;;;;;7.45;3.67;;;9.20;99.90;;;;;;5114075;28;20047;-82
2021/12/18 12:47:11;;;;;;;10.73;3.35;;;9.20;99.90;;;;;;5113226;28;20138;-83
2021/12/18 12:49:36;;;;;;;10.80;3.72;;;9.20;99.90;;;;;;5114362;28;20078;-83
2021/12/18 12:52:22;;;;;;;9.45;3.20;;;9.30;99.90;;;;;;5112975;28;20055;-83
2021/12/18 12:54:50;;;;;;;11.65;3.22;;;9.30;99.90;;;;;;5096457;28;20399;-83
2021/12/18 12:57:22;;;;;;;8.43;3.30;;;9.30;99.90;;;;;;5096211;28;20432;-82
2021/12/18 12:59:57;;;;;;;7.30;3.55;;;9.30;99.90;;;;;;5113244;28;20177;-83
2021/12/18 13:02:23;;;;;;;9.35;3.88;;;9.30;99.90;;;;;;5113949;27;20047;-83
2021/12/18 13:04:49;;;;;;;13.60;3.63;;;9.30;99.90;;;;;;5079115;28;20035;-83
2021/12/18 13:07:15;;;;;;;11.20;3.10;;;9.20;99.90;;;;;;5079094;28;20059;-83
2021/12/18 13:09:45;;;;;;;12.05;3.17;;;9.30;99.90;;;;;;5129757;27;20391;-82
2021/12/18 13:12:10;;;;;;;11.40;2.72;;;9.20;99.90;;;;;;5095717;28;20503;-84
2021/12/18 13:14:37;;;;;;;10.27;3.08;;;9.20;99.90;;;;;;5129572;27;20062;-83
2021/12/18 13:17:35;;;;;;;11.95;4.05;;;9.20;99.90;;;;;;5095285;28;20101;-83
2021/12/18 13:20:04;;;;;;;11.55;2.95;;;9.20;99.90;;;;;;5112250;28;20100;-84
2021/12/18 13:22:32;;;;;;;11.10;3.67;;;9.30;99.90;;;;;;5079172;28;20130;-84
2021/12/18 13:25:05;;;;;;;11.13;3.33;;;9.20;99.90;;;;;;5095421;27;20063;-82
2021/12/18 13:27:31;;;;;;;7.90;3.47;;;9.20;99.90;;;;;;5094607;28;20051;-82
2021/12/18 13:30:19;;;;;;;17.55;3.95;;;9.20;99.90;;;;;;5095130;28;20050;-82
2021/12/18 13:32:53;;;;;;;10.48;3.28;;;9.20;99.90;;;;;;5092620;28;20083;-82
2021/12/18 13:35:19;;;;;;;;;;;9.20;99.90;;;;;;5092420;28;20135;-82
2021/12/18 13:38:11;;;;;;;12.00;4.43;;;9.10;99.90;;;;;;5074815;28;20007;-83
2021/12/18 13:40:47;;;;;;;10.70;3.90;;;9.10;99.90;;;;;;5091382;28;20404;-82
2021/12/18 13:43:17;;;;;;;13.63;3.67;;;9.10;99.90;;;;;;5092054;28;20480;-82
2021/12/18 13:45:56;;;;;;;11.93;4.07;;;9.10;99.90;;;;;;5058169;28;20079;-82
2021/12/18 13:48:26;;;;;;;9.88;3.60;;;9.10;99.90;;;;;;5091780;28;20060;-83